Time;durP1;ratioP1;P1;durP2;ratioP2;P2;SDS_P1;SDS_P2;PMS_P1;PMS_P2;Temp;Humidity;BMP_temperature;BMP_pressure;BME280_temperature;BME280_humidity;BME280_pressure;Samples;Min_cycle;Max_cycle;Signal;HPM_P1;HPM_P2
2021/12/24 00:02:24;;;;;;;45.53;22.90;;;9.60;99.90;;;;;;6311480;22;20153;-90
2021/12/24 00:04:50;;;;;;;44.67;22.77;;;9.60;99.90;;;;;;6311554;22;20159;-88
2021/12/24 00:07:16;;;;;;;39.83;21.80;;;9.50;99.90;;;;;;6311250;22;20486;-89
2021/12/24 00:09:41;;;;;;;40.03;21.63;;;9.50;99.90;;;;;;6311874;22;20156;-88
2021/12/24 00:12:14;;;;;;;35.77;20.90;;;9.50;99.90;;;;;;6311803;22;20147;-90
2021/12/24 00:14:44;;;;;;;36.63;22.83;;;9.60;99.90;;;;;;6311224;22;20158;-85
2021/12/24 00:17:14;;;;;;;43.40;24.17;;;9.60;99.90;;;;;;6310486;22;20477;-85
2021/12/24 00:20:03;;;;;;;51.33;28.03;;;9.50;99.90;;;;;;6311006;22;20149;-86
2021/12/24 00:36:29;;;;;;;38.23;20.90;;;9.70;99.90;;;;;;6213037;23;20145;-85
2021/12/24 00:38:54;;;;;;;36.73;21.30;;;9.80;99.90;;;;;;6260168;22;20160;-87
2021/12/24 00:41:22;;;;;;;41.97;25.00;;;9.80;99.90;;;;;;6311150;22;20467;-84
2021/12/24 00:43:47;;;;;;;31.93;19.40;;;9.70;99.90;;;;;;6311094;22;20166;-85
2021/12/24 00:46:13;;;;;;;46.07;24.27;;;9.60;99.90;;;;;;6311375;22;20224;-85
2021/12/24 00:48:38;;;;;;;35.53;20.87;;;9.70;99.90;;;;;;6311559;22;20682;-85
2021/12/24 00:56:08;;;;;;;38.93;20.17;;;9.70;99.90;;;;;;6349478;22;20135;-85
2021/12/24 00:58:33;;;;;;;42.50;23.07;;;9.70;99.90;;;;;;6311376;22;20171;-85
2021/12/24 01:00:59;;;;;;;40.00;23.03;;;9.80;99.90;;;;;;6311212;22;20145;-84
2021/12/24 01:03:25;;;;;;;39.83;22.60;;;9.80;99.90;;;;;;6311681;22;20151;-86
2021/12/24 01:05:51;;;;;;;34.30;19.73;;;9.70;99.90;;;;;;6310593;22;20412;-85
2021/12/24 01:08:17;;;;;;;38.73;19.33;;;9.60;99.90;;;;;;6310250;22;20180;-85
2021/12/24 01:10:50;;;;;;;29.57;17.50;;;9.60;99.90;;;;;;6311076;22;20585;-85
2021/12/24 01:13:16;;;;;;;35.10;19.27;;;9.70;99.90;;;;;;6311252;22;20151;-85
2021/12/24 01:16:07;;;;;;;30.87;19.37;;;9.80;99.90;;;;;;6310977;22;20576;-84
2021/12/24 01:23:37;;;;;;;29.23;18.07;;;9.80;99.90;;;;;;6343983;22;20159;-84
2021/12/24 01:26:07;;;;;;;32.07;18.57;;;9.80;99.90;;;;;;6311102;22;20220;-83
2021/12/24 01:44:40;;;;;;;37.47;17.83;;;9.80;99.90;;;;;;6338067;22;20206;-85
2021/12/24 01:47:07;;;;;;;30.30;18.33;;;9.90;99.90;;;;;;6311032;22;20219;-84
2021/12/24 01:49:33;;;;;;;32.23;18.03;;;9.90;99.90;;;;;;6310894;22;20153;-84
2021/12/24 01:52:02;;;;;;;35.57;18.43;;;9.90;99.90;;;;;;6311045;22;20146;-85
2021/12/24 01:54:28;;;;;;;39.37;18.83;;;9.80;99.90;;;;;;6310460;22;20600;-85
2021/12/24 01:56:54;;;;;;;30.47;18.37;;;9.80;99.90;;;;;;6312765;22;20184;-85
2021/12/24 01:59:20;;;;;;;33.60;19.37;;;9.90;99.90;;;;;;6312983;22;20157;-85
2021/12/24 02:01:46;;;;;;;35.97;18.43;;;10.00;99.90;;;;;;6312469;22;20478;-85
2021/12/24 02:04:13;;;;;;;33.33;18.13;;;10.00;99.90;;;;;;6339618;22;20130;-84
2021/12/24 02:06:39;;;;;;;41.20;19.13;;;10.00;99.90;;;;;;6312822;22;20146;-85
2021/12/24 02:09:06;;;;;;;31.20;18.33;;;9.80;99.90;;;;;;6312358;22;20200;-84
2021/12/24 02:11:37;;;;;;;33.67;18.63;;;9.80;99.90;;;;;;6312819;22;20149;-84
2021/12/24 02:14:06;;;;;;;34.73;19.03;;;9.70;99.90;;;;;;6312972;22;20493;-84
2021/12/24 02:16:58;;;;;;;35.07;18.37;;;9.70;99.90;;;;;;6312358;22;20163;-84
2021/12/24 02:30:20;;;;;;;34.87;18.43;;;10.00;99.90;;;;;;6339867;22;20151;-84
2021/12/24 02:32:46;;;;;;;39.53;19.27;;;9.90;99.90;;;;;;6312046;22;20272;-84
2021/12/24 02:35:12;;;;;;;33.23;17.83;;;9.90;99.90;;;;;;6312432;22;20224;-85
2021/12/24 02:37:38;;;;;;;33.57;18.30;;;10.10;99.90;;;;;;6311514;22;20149;-84
2021/12/24 02:40:04;;;;;;;36.30;19.77;;;10.10;99.90;;;;;;6312534;22;20155;-83
2021/12/24 02:42:31;;;;;;;33.23;18.33;;;10.10;99.90;;;;;;6312272;22;20157;-84
2021/12/24 02:44:57;;;;;;;31.27;18.57;;;10.00;99.90;;;;;;6312061;22;20232;-84
2021/12/24 02:54:59;;;;;;;32.97;18.67;;;10.00;99.90;;;;;;6339491;22;20195;-85
2021/12/24 02:57:28;;;;;;;35.93;18.90;;;10.00;99.90;;;;;;6312667;22;20189;-85
2021/12/24 02:59:59;;;;;;;38.10;19.23;;;10.10;99.90;;;;;;6312441;22;20151;-85
2021/12/24 03:02:27;;;;;;;31.33;17.67;;;10.20;99.90;;;;;;6311809;22;20143;-85
2021/12/24 03:04:53;;;;;;;31.27;17.07;;;10.20;99.90;;;;;;6312171;22;20570;-84
2021/12/24 03:07:18;;;;;;;35.23;17.43;;;10.30;99.90;;;;;;6312106;22;20169;-85
2021/12/24 03:09:44;;;;;;;36.23;18.33;;;10.30;99.90;;;;;;6312269;22;20173;-84
2021/12/24 03:12:10;;;;;;;36.20;18.93;;;10.30;99.90;;;;;;6312122;22;20204;-84
2021/12/24 03:14:36;;;;;;;32.10;17.60;;;10.20;99.90;;;;;;6312165;22;20473;-84
2021/12/24 03:17:07;;;;;;;36.47;17.83;;;10.20;99.90;;;;;;6311821;22;20150;-84
2021/12/24 03:19:33;;;;;;;34.07;17.87;;;10.10;99.90;;;;;;6311959;22;20141;-84
2021/12/24 03:22:50;;;;;;;35.60;17.03;;;10.10;99.90;;;;;;6311585;22;20573;-85
2021/12/24 03:24:45;;;;;;;37.00;17.37;;;10.10;99.90;;;;;;6317149;22;20542;-85
2021/12/24 03:27:12;;;;;;;32.57;18.23;;;10.10;99.90;;;;;;6311742;22;20161;-85
2021/12/24 03:29:38;;;;;;;40.97;19.07;;;10.20;99.90;;;;;;6311714;22;20153;-85
2021/12/24 03:32:05;;;;;;;32.17;17.57;;;10.20;99.90;;;;;;6311265;22;20176;-85
2021/12/24 03:34:30;;;;;;;34.30;16.70;;;10.10;99.90;;;;;;6311717;22;20488;-85
2021/12/24 03:36:56;;;;;;;34.10;16.57;;;10.10;99.90;;;;;;6312132;22;20143;-83
2021/12/24 03:39:21;;;;;;;29.17;18.73;;;10.10;99.90;;;;;;6311690;22;20148;-85
2021/12/24 03:41:48;;;;;;;38.07;18.00;;;10.10;99.90;;;;;;6312126;22;20141;-84
2021/12/24 03:44:15;;;;;;;39.57;18.33;;;10.10;99.90;;;;;;6311988;22;20149;-84
2021/12/24 03:49:32;;;;;;;31.10;18.17;;;10.20;99.90;;;;;;6349003;22;20505;-84
2021/12/24 03:52:19;;;;;;;38.50;17.40;;;10.30;99.90;;;;;;6311550;22;20156;-84
2021/12/24 03:54:58;;;;;;;36.13;17.17;;;10.20;99.90;;;;;;6311588;22;20175;-85
2021/12/24 03:57:31;;;;;;;35.17;17.40;;;10.30;99.90;;;;;;6312019;22;20546;-85
2021/12/24 04:00:00;;;;;;;32.57;17.10;;;10.30;99.90;;;;;;6311579;22;20161;-85
2021/12/24 04:02:26;;;;;;;41.57;17.53;;;10.30;99.90;;;;;;6311559;22;20151;-85
2021/12/24 04:04:52;;;;;;;40.20;16.17;;;10.30;99.90;;;;;;6311341;22;20172;-84
2021/12/24 04:07:18;;;;;;;36.30;18.93;;;10.40;99.90;;;;;;6311738;22;20182;-84
2021/12/24 04:10:08;;;;;;;32.43;16.73;;;10.40;99.90;;;;;;6310920;22;20145;-84
2021/12/24 04:12:34;;;;;;;38.00;17.90;;;10.40;99.90;;;;;;6311116;22;20573;-84
2021/12/24 04:15:00;;;;;;;34.20;16.83;;;10.40;99.90;;;;;;6311467;22;20206;-84
2021/12/24 04:17:26;;;;;;;35.30;16.97;;;10.30;99.90;;;;;;6311659;22;20146;-84
2021/12/24 04:25:34;;;;;;;41.83;18.47;;;10.40;99.90;;;;;;6270145;22;20157;-84
2021/12/24 04:28:01;;;;;;;43.80;19.80;;;10.40;99.90;;;;;;6310687;22;20180;-84
2021/12/24 04:30:33;;;;;;;39.23;19.33;;;10.40;99.90;;;;;;6310913;22;20144;-84
2021/12/24 04:33:05;;;;;;;40.77;19.07;;;10.40;99.90;;;;;;6310834;22;20621;-86
2021/12/24 04:35:39;;;;;;;44.17;19.70;;;10.30;99.90;;;;;;6311361;22;20147;-84
2021/12/24 04:51:49;;;;;;;39.47;19.70;;;10.00;99.90;;;;;;6338973;22;20164;-84
2021/12/24 05:05:24;;;;;;;37.67;19.07;;;10.30;99.90;;;;;;6338417;22;20545;-84
2021/12/24 05:10:16;;;;;;;34.73;17.83;;;10.30;99.90;;;;;;6349223;22;20647;-84
2021/12/24 05:12:42;;;;;;;38.90;18.80;;;10.30;99.90;;;;;;6310635;22;20182;-84
2021/12/24 05:15:10;;;;;;;37.23;17.90;;;10.30;99.90;;;;;;6310538;22;20145;-84
2021/12/24 05:23:04;;;;;;;40.10;18.33;;;10.10;99.90;;;;;;6338318;22;20213;-84
2021/12/24 05:25:29;;;;;;;43.67;18.20;;;10.00;99.90;;;;;;6311227;22;20243;-84
2021/12/24 05:27:58;;;;;;;40.27;18.87;;;10.20;99.90;;;;;;6311261;22;20177;-85
2021/12/24 05:30:25;;;;;;;39.87;19.30;;;10.20;99.90;;;;;;6311357;22;20144;-84
2021/12/24 05:32:50;;;;;;;45.63;18.47;;;10.10;99.90;;;;;;6312466;22;20184;-85
2021/12/24 05:35:16;;;;;;;39.10;19.77;;;10.00;99.90;;;;;;6312448;22;20228;-84
2021/12/24 05:37:42;;;;;;;33.60;18.13;;;10.00;99.90;;;;;;6312741;22;20187;-84
2021/12/24 05:40:08;;;;;;;42.43;19.13;;;10.10;99.90;;;;;;6312529;22;20157;-84
2021/12/24 05:42:34;;;;;;;40.13;19.10;;;10.10;99.90;;;;;;6312138;22;20202;-84
2021/12/24 05:45:04;;;;;;;37.83;18.20;;;10.10;99.90;;;;;;6312419;22;20214;-84
2021/12/24 05:47:30;;;;;;;40.30;19.13;;;10.10;99.90;;;;;;6312177;22;20243;-84
2021/12/24 05:49:56;;;;;;;38.37;19.30;;;10.20;99.90;;;;;;6312410;22;20148;-84
2021/12/24 05:52:22;;;;;;;40.80;18.63;;;10.20;99.90;;;;;;6311842;22;20137;-84
2021/12/24 05:54:47;;;;;;;37.27;18.80;;;10.20;99.90;;;;;;6310775;22;20236;-84
2021/12/24 05:57:14;;;;;;;36.83;17.87;;;10.10;99.90;;;;;;6310851;22;20149;-84
2021/12/24 05:59:40;;;;;;;38.33;17.87;;;10.00;99.90;;;;;;6311877;22;20145;-85
2021/12/24 06:02:06;;;;;;;47.60;19.50;;;10.20;99.90;;;;;;6311792;22;20163;-84
2021/12/24 06:04:31;;;;;;;41.77;20.37;;;10.20;99.90;;;;;;6312189;22;20145;-84
2021/12/24 06:06:58;;;;;;;37.03;18.63;;;10.20;99.90;;;;;;6312604;22;20154;-85
2021/12/24 06:09:24;;;;;;;34.83;18.37;;;10.20;99.90;;;;;;6312254;22;20213;-84
2021/12/24 06:11:49;;;;;;;39.07;18.43;;;10.10;99.90;;;;;;6312764;22;20142;-84
2021/12/24 06:14:15;;;;;;;44.57;18.87;;;10.20;99.90;;;;;;6311452;22;20162;-84
2021/12/24 06:16:49;;;;;;;43.43;19.13;;;10.20;99.90;;;;;;6311827;22;20145;-84
2021/12/24 06:19:16;;;;;;;32.67;18.83;;;10.20;99.90;;;;;;6311898;22;20646;-84
2021/12/24 06:21:41;;;;;;;41.97;18.43;;;10.20;99.90;;;;;;6311517;22;20146;-84
2021/12/24 06:24:07;;;;;;;47.33;19.20;;;10.30;99.90;;;;;;6312392;22;20199;-84
2021/12/24 06:26:33;;;;;;;38.63;17.43;;;10.30;99.90;;;;;;6311412;22;20227;-84
2021/12/24 06:29:00;;;;;;;49.50;20.43;;;10.30;99.90;;;;;;6312530;22;20185;-85
2021/12/24 06:31:25;;;;;;;40.53;19.80;;;10.30;99.90;;;;;;6311597;22;20476;-84
2021/12/24 06:33:51;;;;;;;45.53;18.97;;;10.20;99.90;;;;;;6311913;22;20153;-85
2021/12/24 06:36:17;;;;;;;44.83;20.17;;;10.00;99.90;;;;;;6311721;22;20148;-84
2021/12/24 06:38:42;;;;;;;40.00;19.90;;;10.10;99.90;;;;;;6311146;22;20154;-85
2021/12/24 06:41:09;;;;;;;43.80;19.93;;;10.10;99.90;;;;;;6312484;22;20461;-85
2021/12/24 06:43:35;;;;;;;47.57;19.67;;;10.20;99.90;;;;;;6312395;22;20228;-85
2021/12/24 06:46:08;;;;;;;37.03;20.07;;;10.30;99.90;;;;;;6312727;22;20160;-84
2021/12/24 06:48:34;;;;;;;41.27;19.70;;;10.30;99.90;;;;;;6312256;22;20181;-85
2021/12/24 06:51:00;;;;;;;48.33;19.90;;;10.30;99.90;;;;;;6311954;22;20183;-83
2021/12/24 06:53:25;;;;;;;43.60;18.73;;;10.30;99.90;;;;;;6311206;22;20164;-84
2021/12/24 06:55:51;;;;;;;36.67;17.90;;;10.30;99.90;;;;;;6311748;22;20151;-84
2021/12/24 06:58:17;;;;;;;38.97;17.43;;;10.20;99.90;;;;;;6312237;22;20239;-84
2021/12/24 07:00:43;;;;;;;36.80;17.33;;;10.20;99.90;;;;;;6312522;22;20226;-86
2021/12/24 07:03:08;;;;;;;38.07;16.83;;;10.20;99.90;;;;;;6312050;22;20249;-84
2021/12/24 07:05:34;;;;;;;36.70;17.87;;;10.10;99.90;;;;;;6312617;22;20160;-84
2021/12/24 07:08:00;;;;;;;33.07;16.20;;;10.00;99.90;;;;;;6311415;22;20180;-84
2021/12/24 07:10:26;;;;;;;37.47;17.30;;;10.10;99.90;;;;;;6312300;22;20138;-85
2021/12/24 07:12:51;;;;;;;34.73;16.67;;;10.10;99.90;;;;;;6311750;22;20153;-84
2021/12/24 07:15:17;;;;;;;31.50;15.73;;;10.10;99.90;;;;;;6311517;22;20145;-83
2021/12/24 07:17:44;;;;;;;35.83;16.60;;;10.10;99.90;;;;;;6312010;22;20585;-84
2021/12/24 07:20:10;;;;;;;35.53;15.33;;;10.10;99.90;;;;;;6312149;22;20144;-84
2021/12/24 07:22:36;;;;;;;36.97;17.03;;;10.10;99.90;;;;;;6311641;22;20161;-84
2021/12/24 07:25:01;;;;;;;32.03;15.73;;;10.10;99.90;;;;;;6312028;22;20503;-84
2021/12/24 07:27:27;;;;;;;34.97;17.07;;;10.10;99.90;;;;;;6311552;22;20180;-84
2021/12/24 07:29:53;;;;;;;36.50;16.73;;;10.10;99.90;;;;;;6311888;22;20142;-84
2021/12/24 07:32:18;;;;;;;30.70;15.60;;;10.00;99.90;;;;;;6311117;22;20626;-85
2021/12/24 07:34:44;;;;;;;30.33;15.53;;;10.00;99.90;;;;;;6311533;22;20153;-84
2021/12/24 07:37:11;;;;;;;30.17;14.77;;;10.10;99.90;;;;;;6311188;22;20153;-84
2021/12/24 07:39:36;;;;;;;35.30;15.60;;;10.10;99.90;;;;;;6311781;22;20171;-84
2021/12/24 07:42:02;;;;;;;31.37;15.50;;;10.10;99.90;;;;;;6310184;22;20638;-86
2021/12/24 07:44:30;;;;;;;30.97;15.53;;;10.10;99.90;;;;;;6310968;22;20155;-85
2021/12/24 07:46:59;;;;;;;31.30;16.40;;;10.10;99.90;;;;;;6311043;22;20149;-85
2021/12/24 07:52:05;;;;;;;31.40;15.60;;;10.10;99.90;;;;;;6349168;22;20145;-85
2021/12/24 07:54:32;;;;;;;34.37;16.40;;;10.10;99.90;;;;;;6338404;22;20218;-85
2021/12/24 07:56:59;;;;;;;29.63;16.97;;;10.10;99.90;;;;;;6311651;22;20168;-85
2021/12/24 07:59:26;;;;;;;31.17;17.00;;;10.10;99.90;;;;;;6311683;22;20148;-85
2021/12/24 08:01:53;;;;;;;28.97;16.67;;;10.10;99.90;;;;;;6311819;22;20145;-85
2021/12/24 08:04:19;;;;;;;33.87;17.03;;;10.00;99.90;;;;;;6311111;22;20207;-85
2021/12/24 08:06:45;;;;;;;31.03;16.40;;;10.10;99.90;;;;;;6311333;22;20552;-85
2021/12/24 08:09:10;;;;;;;32.13;17.30;;;10.00;99.90;;;;;;6339404;22;20745;-85
2021/12/24 08:11:37;;;;;;;31.57;15.93;;;9.90;99.90;;;;;;6311893;22;20576;-85
2021/12/24 08:14:05;;;;;;;35.97;17.20;;;9.80;99.90;;;;;;6311207;22;20143;-85
2021/12/24 08:16:32;;;;;;;33.97;17.13;;;9.80;99.90;;;;;;6311911;22;20152;-85
2021/12/24 08:18:59;;;;;;;39.47;17.27;;;9.70;99.90;;;;;;6311636;22;20152;-85
2021/12/24 08:21:25;;;;;;;31.37;16.33;;;9.80;99.90;;;;;;6311605;22;20238;-86
2021/12/24 08:23:51;;;;;;;34.13;17.30;;;9.80;99.90;;;;;;6311614;22;20235;-85
2021/12/24 08:26:19;;;;;;;35.50;17.37;;;9.90;99.90;;;;;;6311577;22;20186;-84
2021/12/24 08:28:45;;;;;;;40.80;18.23;;;9.90;99.90;;;;;;6311617;22;20254;-85
2021/12/24 08:31:11;;;;;;;36.27;17.03;;;9.90;99.90;;;;;;6311490;22;20578;-85
2021/12/24 08:33:36;;;;;;;38.60;18.10;;;9.80;99.90;;;;;;6311129;22;20637;-87
2021/12/24 08:36:07;;;;;;;39.90;18.53;;;9.80;99.90;;;;;;6311264;22;20228;-85
2021/12/24 08:38:33;;;;;;;36.27;18.13;;;9.80;99.90;;;;;;6311409;22;20152;-87
2021/12/24 08:40:59;;;;;;;35.70;17.47;;;9.80;99.90;;;;;;6311440;22;20441;-86
2021/12/24 08:43:25;;;;;;;36.07;18.47;;;9.90;99.90;;;;;;6311965;22;20172;-84
2021/12/24 08:45:50;;;;;;;38.83;18.60;;;9.90;99.90;;;;;;6311386;22;20156;-84
2021/12/24 08:48:16;;;;;;;33.83;17.57;;;9.80;99.90;;;;;;6311637;22;20181;-85
2021/12/24 08:50:42;;;;;;;44.43;18.23;;;9.90;99.90;;;;;;6310960;22;20151;-84
2021/12/24 08:53:08;;;;;;;37.63;17.93;;;9.90;99.90;;;;;;6311092;22;20449;-85
2021/12/24 08:55:35;;;;;;;37.33;18.27;;;9.80;99.90;;;;;;6311676;22;20301;-84
2021/12/24 08:58:02;;;;;;;33.93;17.83;;;9.80;99.90;;;;;;6311613;22;20163;-85
2021/12/24 09:00:29;;;;;;;35.77;18.10;;;9.70;99.90;;;;;;6311030;22;20148;-85
2021/12/24 09:02:56;;;;;;;41.77;18.97;;;9.80;99.90;;;;;;6311655;22;20155;-85
2021/12/24 09:05:22;;;;;;;42.03;18.37;;;9.80;99.90;;;;;;6312315;22;20138;-85
2021/12/24 09:07:48;;;;;;;43.27;19.90;;;9.70;99.90;;;;;;6312814;22;20183;-85
2021/12/24 09:10:15;;;;;;;41.20;19.23;;;9.70;99.90;;;;;;6313156;22;20141;-85
2021/12/24 09:12:43;;;;;;;38.17;20.03;;;9.80;99.90;;;;;;6313728;22;20222;-85
2021/12/24 09:15:13;;;;;;;39.53;19.23;;;10.00;99.90;;;;;;6340833;22;20139;-84
2021/12/24 09:17:44;;;;;;;38.37;18.43;;;10.00;99.90;;;;;;6313462;22;20147;-85
2021/12/24 09:20:13;;;;;;;45.10;19.60;;;10.00;99.90;;;;;;6313169;22;20222;-85
2021/12/24 09:22:40;;;;;;;41.43;19.57;;;10.00;99.90;;;;;;6313246;22;20167;-85
2021/12/24 09:25:06;;;;;;;48.80;20.33;;;9.90;99.90;;;;;;6313489;22;20191;-84
2021/12/24 09:27:32;;;;;;;44.83;19.27;;;9.90;99.90;;;;;;6313000;22;20623;-85
2021/12/24 09:29:58;;;;;;;44.27;19.50;;;9.90;99.90;;;;;;6312839;22;20198;-85
2021/12/24 09:32:25;;;;;;;40.30;19.07;;;9.90;99.90;;;;;;6311608;22;20613;-85
2021/12/24 09:34:52;;;;;;;48.10;20.17;;;9.90;99.90;;;;;;6313057;22;20153;-85
2021/12/24 09:37:17;;;;;;;43.10;18.37;;;9.90;99.90;;;;;;6313672;22;20490;-89
2021/12/24 09:39:43;;;;;;;48.13;18.63;;;10.00;99.90;;;;;;6312231;22;20141;-89
2021/12/24 09:42:09;;;;;;;45.30;19.93;;;10.00;99.90;;;;;;6313018;22;20238;-89
2021/12/24 09:44:35;;;;;;;38.47;18.67;;;10.00;99.90;;;;;;6313086;22;20482;-89
2021/12/24 09:47:01;;;;;;;38.23;18.53;;;10.00;99.90;;;;;;6312963;22;20141;-89
2021/12/24 09:49:27;;;;;;;47.23;18.27;;;10.10;99.90;;;;;;6313503;22;20147;-90
2021/12/24 09:51:53;;;;;;;38.70;17.40;;;10.20;99.90;;;;;;6312955;22;20142;-89
2021/12/24 09:54:24;;;;;;;40.37;19.57;;;10.30;99.90;;;;;;6305166;22;20422;-88
2021/12/24 09:56:52;;;;;;;37.13;18.73;;;10.30;99.90;;;;;;6339842;22;20144;-84
2021/12/24 09:59:18;;;;;;;40.47;19.43;;;10.40;99.90;;;;;;6313105;22;20157;-88
2021/12/24 10:01:55;;;;;;;48.50;19.63;;;10.40;99.90;;;;;;6312543;22;20141;-87
2021/12/24 10:04:23;;;;;;;37.67;18.73;;;10.40;99.90;;;;;;6312919;22;20185;-87
2021/12/24 10:07:10;;;;;;;36.53;18.43;;;10.30;99.90;;;;;;6312019;22;20152;-89
2021/12/24 10:09:37;;;;;;;38.53;17.13;;;10.20;99.90;;;;;;6312427;22;20155;-89
2021/12/24 10:12:16;;;;;;;30.27;15.60;;;10.20;99.90;;;;;;6339488;22;20236;-87
2021/12/24 10:14:52;;;;;;;31.43;17.63;;;10.20;99.90;;;;;;6312164;22;20147;-87
2021/12/24 10:17:22;;;;;;;34.10;16.97;;;10.00;99.90;;;;;;6338989;22;20145;-88
2021/12/24 10:19:57;;;;;;;30.33;14.13;;;10.10;99.90;;;;;;6311677;22;20190;-86
2021/12/24 10:22:23;;;;;;;30.23;14.43;;;10.10;99.90;;;;;;6339809;22;20182;-88
2021/12/24 11:16:45;;;;;;;23.57;11.03;;;10.80;99.90;;;;;;6327184;22;20489;-91
2021/12/24 11:19:11;;;;;;;25.37;10.90;;;10.70;99.90;;;;;;6319655;22;20157;-88
2021/12/24 11:21:36;;;;;;;20.70;10.40;;;10.70;99.90;;;;;;6312177;22;20199;-87
2021/12/24 11:24:02;;;;;;;28.37;12.03;;;10.80;99.90;;;;;;6311430;22;20157;-87
2021/12/24 11:26:32;;;;;;;21.80;11.27;;;10.80;99.90;;;;;;6311636;22;20177;-87
2021/12/24 11:28:58;;;;;;;23.07;11.40;;;10.80;99.90;;;;;;6311341;22;20255;-88
2021/12/24 11:31:29;;;;;;;21.40;10.63;;;10.70;99.90;;;;;;6311739;22;20192;-87
2021/12/24 11:33:58;;;;;;;24.03;11.17;;;10.80;99.90;;;;;;6311557;22;20153;-87
2021/12/24 11:36:25;;;;;;;21.53;11.53;;;10.80;99.90;;;;;;6311327;22;20149;-87
2021/12/24 11:38:54;;;;;;;21.27;11.10;;;10.80;99.90;;;;;;6311245;22;20602;-87
2021/12/24 11:41:25;;;;;;;21.47;10.77;;;10.90;99.90;;;;;;6311242;22;20577;-86
2021/12/24 11:43:52;;;;;;;19.53;10.20;;;10.90;99.90;;;;;;6311139;22;20153;-87
2021/12/24 11:46:20;;;;;;;20.77;10.30;;;11.00;99.90;;;;;;6311427;22;20479;-88
2021/12/24 11:48:48;;;;;;;23.80;11.37;;;11.00;99.90;;;;;;6311109;22;20220;-88
2021/12/24 11:51:19;;;;;;;22.93;10.10;;;10.90;99.90;;;;;;6311517;22;20145;-91
2021/12/24 11:53:46;;;;;;;20.97;10.17;;;11.10;99.90;;;;;;6311651;22;20191;-93
2021/12/24 11:56:15;;;;;;;21.40;11.30;;;11.10;99.90;;;;;;6311164;22;20192;-94
2021/12/24 11:58:43;;;;;;;22.40;9.73;;;11.20;99.90;;;;;;6310915;22;20232;-94
2021/12/24 12:01:09;;;;;;;21.63;10.50;;;11.30;99.90;;;;;;6311621;22;20206;-95
2021/12/24 12:03:38;;;;;;;18.27;10.17;;;11.30;99.90;;;;;;6311209;22;20145;-95
2021/12/24 12:06:16;;;;;;;24.63;10.63;;;11.20;99.90;;;;;;6311874;22;20153;-92
2021/12/24 12:08:43;;;;;;;20.83;10.57;;;11.20;99.90;;;;;;6311757;22;20528;-94
2021/12/24 12:11:21;;;;;;;23.40;10.63;;;11.20;99.90;;;;;;6311796;22;20149;-93
2021/12/24 12:13:48;;;;;;;23.97;10.17;;;11.30;99.90;;;;;;6311399;22;20187;-94
2021/12/24 12:16:17;;;;;;;21.67;11.30;;;11.20;99.90;;;;;;6311036;22;20196;-93
2021/12/24 12:19:03;;;;;;;20.43;10.67;;;11.20;99.90;;;;;;6338917;22;20168;-92
2021/12/24 12:21:42;;;;;;;27.33;11.70;;;11.10;99.90;;;;;;6312816;22;20144;-91
2021/12/24 12:26:48;;;;;;;19.23;10.43;;;11.60;99.90;;;;;;6340872;22;20586;-87
2021/12/24 12:29:32;;;;;;;24.00;11.17;;;11.60;99.90;;;;;;6310402;22;20180;-88
2021/12/24 12:32:16;;;;;;;19.87;10.70;;;11.70;99.90;;;;;;6310920;22;20496;-89
2021/12/24 12:34:45;;;;;;;21.43;10.93;;;11.80;99.90;;;;;;6310678;22;20164;-90
2021/12/24 12:37:11;;;;;;;22.03;10.87;;;11.70;99.90;;;;;;6311995;22;20651;-94
2021/12/24 12:39:37;;;;;;;25.77;11.53;;;11.40;99.90;;;;;;6311857;22;20149;-90
2021/12/24 12:42:03;;;;;;;23.43;11.27;;;11.50;99.90;;;;;;6308923;22;20543;-89
2021/12/24 12:44:29;;;;;;;21.60;12.17;;;11.50;99.90;;;;;;6308957;22;20165;-90
2021/12/24 12:47:12;;;;;;;21.90;11.47;;;11.50;99.90;;;;;;6309320;22;20456;-92
2021/12/24 12:49:38;;;;;;;22.77;11.50;;;11.40;99.90;;;;;;6303002;22;20366;-91
2021/12/24 12:52:07;;;;;;;20.27;11.30;;;11.50;99.90;;;;;;6306824;22;20149;-89
2021/12/24 12:54:46;;;;;;;23.33;12.10;;;11.40;99.90;;;;;;6309106;22;20151;-90
2021/12/24 12:57:36;;;;;;;24.87;12.30;;;11.50;99.90;;;;;;6309859;22;20160;-90
2021/12/24 13:00:07;;;;;;;23.87;12.57;;;11.40;99.90;;;;;;6310905;22;20667;-89
2021/12/24 13:03:06;;;;;;;22.13;11.53;;;11.60;99.90;;;;;;6310639;22;20153;-89
2021/12/24 13:05:41;;;;;;;21.87;11.53;;;11.70;99.90;;;;;;6310762;22;20159;-89
2021/12/24 13:08:16;;;;;;;20.87;11.67;;;11.80;99.90;;;;;;6311261;22;20184;-90
2021/12/24 13:10:54;;;;;;;20.23;11.90;;;11.90;99.90;;;;;;6309918;22;20158;-90
2021/12/24 13:13:20;;;;;;;21.20;11.70;;;12.00;99.90;;;;;;6310893;22;20206;-91
2021/12/24 13:15:46;;;;;;;20.40;12.23;;;12.20;99.90;;;;;;6310865;22;20172;-91
2021/12/24 13:18:34;;;;;;;20.33;11.57;;;12.30;99.90;;;;;;6311201;22;20172;-91
2021/12/24 13:23:31;;;;;;;23.20;12.93;;;12.40;99.90;;;;;;6338583;22;20534;-91
2021/12/24 13:25:57;;;;;;;18.97;11.33;;;12.50;99.90;;;;;;6310419;22;20145;-89
2021/12/24 13:28:23;;;;;;;27.90;11.77;;;12.40;99.90;;;;;;6310974;22;20220;-88
2021/12/24 13:30:48;;;;;;;22.57;11.07;;;12.50;99.90;;;;;;6339057;22;20523;-91
2021/12/24 13:33:18;;;;;;;20.60;11.27;;;12.50;99.90;;;;;;6311472;22;20169;-90
2021/12/24 13:35:46;;;;;;;21.77;12.10;;;12.40;99.90;;;;;;6337860;22;20227;-88
2021/12/24 13:38:24;;;;;;;22.60;11.23;;;12.30;99.90;;;;;;6310733;22;20188;-91
2021/12/24 13:40:50;;;;;;;20.70;11.93;;;12.30;99.90;;;;;;6311611;22;20569;-91
2021/12/24 13:43:18;;;;;;;22.70;11.90;;;12.10;99.90;;;;;;6311833;22;20157;-90
2021/12/24 13:45:48;;;;;;;19.23;11.80;;;12.00;99.90;;;;;;6311620;22;20161;-90
2021/12/24 13:48:20;;;;;;;20.73;11.13;;;11.70;99.90;;;;;;6311007;22;20231;-87
2021/12/24 13:56:36;;;;;;;22.90;12.40;;;11.50;99.90;;;;;;6339779;22;20158;-91
2021/12/24 13:59:03;;;;;;;22.03;12.53;;;11.40;99.90;;;;;;6338986;22;20225;-91
2021/12/24 14:01:30;;;;;;;21.47;11.43;;;11.40;99.90;;;;;;6312524;22;20511;-91
2021/12/24 14:03:58;;;;;;;25.30;12.23;;;11.30;99.90;;;;;;6311727;22;20149;-91
2021/12/24 14:06:38;;;;;;;20.73;12.23;;;11.30;99.90;;;;;;6312165;22;20157;-89
2021/12/24 14:09:34;;;;;;;20.47;12.40;;;11.40;99.90;;;;;;6312005;22;20184;-90
2021/12/24 14:12:04;;;;;;;17.53;11.33;;;11.40;99.90;;;;;;6286690;22;20237;-91
2021/12/24 14:14:49;;;;;;;24.57;12.50;;;11.50;99.90;;;;;;6312615;22;20149;-91
2021/12/24 14:17:52;;;;;;;23.23;12.63;;;11.70;99.90;;;;;;6313143;22;20188;-90
2021/12/24 14:20:23;;;;;;;23.07;12.17;;;11.80;99.90;;;;;;6339535;22;20153;-90
2021/12/24 14:22:49;;;;;;;20.23;12.50;;;11.70;99.90;;;;;;6312337;22;20511;-90
2021/12/24 14:25:15;;;;;;;21.07;12.10;;;11.60;99.90;;;;;;6312449;22;20206;-92
2021/12/24 14:27:47;;;;;;;19.63;12.93;;;11.70;99.90;;;;;;6312083;22;20270;-90
2021/12/24 14:30:17;;;;;;;24.73;12.80;;;11.70;99.90;;;;;;6312553;22;20597;-91
2021/12/24 14:32:46;;;;;;;22.07;12.63;;;11.70;99.90;;;;;;6312220;22;20603;-91
2021/12/24 14:35:19;;;;;;;23.57;13.10;;;11.70;99.90;;;;;;6311857;22;20181;-93
2021/12/24 14:37:56;;;;;;;23.37;13.13;;;11.70;99.90;;;;;;6311482;22;20157;-92
2021/12/24 14:40:22;;;;;;;26.77;13.27;;;11.70;99.90;;;;;;6312274;22;20593;-91
2021/12/24 14:42:51;;;;;;;28.20;13.67;;;11.70;99.90;;;;;;6312694;22;20661;-92
2021/12/24 14:45:41;;;;;;;23.07;13.23;;;11.80;99.90;;;;;;6312503;22;20215;-91
2021/12/24 14:48:10;;;;;;;22.63;13.33;;;11.80;99.90;;;;;;6312318;22;20181;-89
2021/12/24 14:50:45;;;;;;;23.03;13.43;;;11.60;99.90;;;;;;6312873;22;20598;-90
2021/12/24 14:53:21;;;;;;;22.97;13.70;;;11.70;99.90;;;;;;6311960;22;20215;-91
2021/12/24 14:55:48;;;;;;;22.80;13.77;;;11.50;99.90;;;;;;6312015;22;20157;-90
2021/12/24 14:58:35;;;;;;;20.27;13.40;;;11.40;99.90;;;;;;6312562;22;20173;-91
2021/12/24 15:01:13;;;;;;;21.93;13.43;;;11.40;99.90;;;;;;6312428;22;20153;-93
2021/12/24 15:03:42;;;;;;;22.70;12.90;;;11.40;99.90;;;;;;6339456;22;20137;-91
2021/12/24 15:06:27;;;;;;;22.70;13.60;;;11.30;99.90;;;;;;6310902;22;20218;-92
2021/12/24 15:08:57;;;;;;;26.60;14.40;;;11.30;99.90;;;;;;6338318;22;20177;-92
2021/12/24 15:11:25;;;;;;;26.07;14.37;;;11.30;99.90;;;;;;6339139;22;20492;-92
2021/12/24 15:13:53;;;;;;;22.27;13.33;;;11.30;99.90;;;;;;6311589;22;20157;-91
2021/12/24 15:16:20;;;;;;;30.00;14.20;;;11.40;99.90;;;;;;6310847;22;20161;-93
2021/12/24 15:18:53;;;;;;;28.63;18.30;;;11.40;99.90;;;;;;6337693;22;20578;-92
2021/12/24 15:21:20;;;;;;;26.20;15.87;;;11.40;99.90;;;;;;6337956;22;20160;-88
2021/12/24 15:23:47;;;;;;;29.43;15.77;;;11.40;99.90;;;;;;6311845;22;20486;-92